SR-99: North of Whinton Atmospheric Data: 06/24/2022 Summary  Detailed Graphs  Station List

  Temperature     Wind Precipitation Visibility
Timestamp Air Wet
Bulb
Dew-
point
24-hr
Max
24-hr
Min
Relative
Humidity
Atmospheric
Pressure
Avg
Speed
Avg
Dir
Spot
Speed
Spot
Dir
Max
Speed
Max
Dir
  Rate Situation Start End 1 hr 3 hr 6 hr 12 hr 24 hr   Situation
Date Time °F °F °F °F °F % in Hg mph ° mph ° mph ° Y/N in/hr text Date Time Date Time in in in in in mi text
06/24/2022 12:00 AM 77.90 62.42 52.70 101.48 77.90 42.0 x 5.82 N 5.59 N 8.28 N No 0.000 No Precipitation     0.000 0.000 0.000 0.000 0.000 1.24 Clear
06/24/2022 12:10 AM 77.36 62.24 52.52 101.48 77.36 42.0 x 4.92 N 4.25 NW 7.61 NW No 0.000 No Precipitation     0.000 0.000 0.000 0.000 0.000 1.24 Clear
06/24/2022 12:20 AM 77.18 62.06 52.16 101.48 77.18 42.0 x 4.47 N 5.14 NW 7.83 N No 0.000 No Precipitation     0.000 0.000 0.000 0.000 0.000 1.24 Clear
06/24/2022 12:30 AM 76.64 61.70 51.98 101.48 76.64 42.0 x 5.37 N 4.25 N 7.83 N No 0.000 No Precipitation     0.000 0.000 0.000 0.000 0.000 1.24 Clear
06/24/2022 12:40 AM 76.28 61.52 51.80 101.48 76.28 42.0 x 3.36 N 3.36 N 7.38 N No 0.000 No Precipitation     0.000 0.000 0.000 0.000 0.000 1.24 Clear
06/24/2022 12:50 AM 76.46 61.34 51.08 101.48 76.28 41.0 x 4.92 N 4.70 N 7.38 NW No 0.000 No Precipitation     0.000 0.000 0.000 0.000 0.000 1.24 Clear
06/24/2022 01:00 AM 76.46 61.16 50.72 101.48 76.28 41.0 x 4.25 N 5.37 N 7.38 N No 0.000 No Precipitation     0.000 0.000 0.000 0.000 0.000 1.24 Clear
06/24/2022 01:10 AM 76.64 60.98 50.54 101.48 76.28 40.0 x 3.80 NW 4.70 NW 7.16 NW No 0.000 No Precipitation     0.000 0.000 0.000 0.000 0.000 1.24 Clear
06/24/2022 01:20 AM 77.00 60.98 49.82 101.48 76.28 39.0 x 4.25 NW 3.80 NW 7.16 NW No 0.000 No Precipitation     0.000 0.000 0.000 0.000 0.000 1.24 Clear
06/24/2022 01:30 AM 75.38 60.44 50.18 101.48 75.56 41.0 x 3.13 W 2.24 W 7.61 NW No 0.000 No Precipitation     0.000 0.000 0.000 0.000 0.000 1.24 Clear
06/24/2022 01:40 AM 72.32 59.90 51.26 101.48 72.32 48.0 x 3.58 W 3.36 NW 4.47 W No 0.000 No Precipitation     0.000 0.000 0.000 0.000 0.000 1.24 Clear
06/24/2022 01:50 AM 73.04 59.90 50.90 101.48 72.14 46.0 x 4.47 W 3.58 W 5.82 NW No 0.000 No Precipitation     0.000 0.000 0.000 0.000 0.000 1.24 Clear
06/24/2022 02:00 AM 73.04 60.26 51.44 101.48 72.14 47.0 x 5.37 W 4.47 W 7.16 W No 0.000 No Precipitation     0.000 0.000 0.000 0.000 0.000 1.24 Clear
06/24/2022 02:10 AM 71.78 60.08 52.16 101.48 71.96 50.0 x 5.14 W 4.92 NW 7.61 W No 0.000 No Precipitation     0.000 0.000 0.000 0.000 0.000 1.24 Clear
06/24/2022 02:20 AM 72.50 59.72 51.08 101.48 71.60 47.0 x 5.14 NW 5.59 NW 7.61 NW No 0.000 No Precipitation     0.000 0.000 0.000 0.000 0.000 1.24 Clear
06/24/2022 02:30 AM 71.60 59.90 51.98 101.48 71.60 50.0 x 5.82 W 3.80 W 8.05 W No 0.000 No Precipitation     0.000 0.000 0.000 0.000 0.000 1.24 Clear
06/24/2022 02:40 AM 70.34 59.72 52.88 101.48 70.34 54.0 x 4.47 NW 5.37 NW 6.26 NW No 0.000 No Precipitation     0.000 0.000 0.000 0.000 0.000 1.24 Clear
06/24/2022 02:50 AM 70.52 59.72 52.70 101.48 70.34 53.0 x 4.92 W 4.25 NW 6.26 W No 0.000 No Precipitation     0.000 0.000 0.000 0.000 0.000 1.24 Clear
06/24/2022 03:00 AM 70.34 59.72 52.52 101.48 69.98 53.0 x 3.80 NW 3.13 NW 6.26 W No 0.000 No Precipitation     0.000 0.000 0.000 0.000 0.000 1.24 Clear
06/24/2022 03:10 AM 71.06 59.90 52.34 101.48 69.98 52.0 x 4.03 W 5.14 NW 6.04 W No 0.000 No Precipitation     0.000 0.000 0.000 0.000 0.000 1.24 Clear
06/24/2022 03:20 AM 69.44 59.72 53.06 101.48 69.62 56.0 x 4.25 NW 3.58 NW 6.93 NW No 0.000 No Precipitation     0.000 0.000 0.000 0.000 0.000 1.24 Clear
06/24/2022 03:30 AM 68.72 59.18 52.70 101.48 68.72 57.0 x 2.91 W 3.13 SW 6.04 W No 0.000 No Precipitation     0.000 0.000 0.000 0.000 0.000 1.24 Clear
06/24/2022 03:40 AM 68.00 59.36 53.78 101.48 68.00 60.0 x 3.13 W 3.36 W 4.92 W No 0.000 No Precipitation     0.000 0.000 0.000 0.000 0.000 1.24 Clear
06/24/2022 03:50 AM 67.10 58.82 53.42 101.48 66.92 62.0 x 2.46 NW 1.79 W 6.04 NW No 0.000 No Precipitation     0.000 0.000 0.000 0.000 0.000 1.24 Clear
06/24/2022 04:10 AM 67.64 58.82 52.70 101.48 66.92 59.0 x 5.59 NW 5.37 NW 7.16 W No 0.000 No Precipitation     0.000 0.000 0.000 0.000 0.000 1.24 Clear
06/24/2022 04:20 AM 67.28 58.64 52.52 101.48 66.92 59.0 x 4.70 NW 4.70 W 8.05 W No 0.000 No Precipitation     0.000 0.000 0.000 0.000 0.000 1.24 Clear
06/24/2022 04:30 AM 66.92 58.28 52.52 101.48 66.92 60.0 x 4.03 NW 3.80 NW 5.37 W No 0.000 No Precipitation     0.000 0.000 0.000 0.000 0.000 1.24 Clear
06/24/2022 04:40 AM 66.92 58.28 52.16 101.48 66.74 59.0 x 4.92 NW 3.80 NW 8.05 NW No 0.000 No Precipitation     0.000 0.000 0.000 0.000 0.000 1.24 Clear
06/24/2022 04:50 AM 67.46 58.28 51.80 101.48 66.74 57.0 x 4.92 NW 6.49 NW 8.28 NW No 0.000 No Precipitation     0.000 0.000 0.000 0.000 0.000 1.24 Clear
06/24/2022 05:00 AM 67.64 58.28 51.80 101.48 66.74 57.0 x 3.36 NW 2.01 NW 8.72 NW No 0.000 No Precipitation     0.000 0.000 0.000 0.000 0.000 1.24 Clear
06/24/2022 05:10 AM 66.92 58.10 51.98 101.48 66.74 59.0 x 4.25 NW 5.14 NW 9.17 NW No 0.000 No Precipitation     0.000 0.000 0.000 0.000 0.000 1.24 Clear
06/24/2022 05:20 AM 66.92 58.10 52.16 101.48 66.74 59.0 x 4.03 NW 4.03 NW 7.61 NW No 0.000 No Precipitation     0.000 0.000 0.000 0.000 0.000 1.24 Clear
06/24/2022 05:30 AM 69.44 58.46 50.72 101.48 66.56 52.0 x 7.16 NW 6.71 NW 10.07 NW No 0.000 No Precipitation     0.000 0.000 0.000 0.000 0.000 1.24 Clear
06/24/2022 05:40 AM 72.32 58.82 49.10 101.48 66.56 44.0 x 5.37 NW 7.83 NW 9.84 N No 0.000 No Precipitation     0.000 0.000 0.000 0.000 0.000 1.24 Clear
06/24/2022 06:00 AM 69.26 58.10 50.00 101.48 66.56 50.0 x 2.46 NW 2.46 W 10.07 NW No 0.000 No Precipitation     0.000 0.000 0.000 0.000 0.000 1.24 Clear
06/24/2022 06:10 AM 68.54 58.10 50.54 101.48 66.56 53.0 x 6.04 NW 6.49 NW 8.95 NW No 0.000 No Precipitation     0.000 0.000 0.000 0.000 0.000 1.24 Clear
06/24/2022 06:20 AM 68.72 58.46 51.08 101.48 66.56 54.0 x 3.13 NW 3.36 W 9.40 NW No 0.000 No Precipitation     0.000 0.000 0.000 0.000 0.000 1.24 Clear
06/24/2022 06:30 AM 68.36 58.64 51.98 101.48 66.56 56.0 x 3.13 NW 2.91 W 6.04 NW No 0.000 No Precipitation     0.000 0.000 0.000 0.000 0.000 1.24 Clear
06/24/2022 06:50 AM 70.70 59.18 51.08 101.48 66.56 50.0 x 6.04 NW 6.04 NW 11.86 NW No 0.000 No Precipitation     0.000 0.000 0.000 0.000 0.000 1.24 Clear
06/24/2022 07:00 AM 72.14 59.36 50.54 101.48 66.56 47.0 x 6.71 NW 6.04 NW 11.41 N No 0.000 No Precipitation     0.000 0.000 0.000 0.000 0.000 1.24 Clear
06/24/2022 07:10 AM 72.86 59.90 50.90 101.48 66.56 46.0 x 7.16 NW 6.04 NW 10.74 NW No 0.000 No Precipitation     0.000 0.000 0.000 0.000 0.000 1.24 Clear
06/24/2022 07:30 AM 74.84 60.98 51.62 101.48 66.56 44.0 x 6.26 NW 6.49 NW 10.07 NW No 0.000 No Precipitation     0.000 0.000 0.000 0.000 0.000 1.24 Clear
06/24/2022 07:40 AM 74.30 61.52 53.06 101.48 66.56 48.0 x 4.92 W 4.92 W 8.72 NW No 0.000 No Precipitation     0.000 0.000 0.000 0.000 0.000 1.24 Clear
06/24/2022 07:50 AM 75.74 61.88 53.06 101.48 66.56 45.0 x 4.92 NW 6.04 NW 8.05 NW No 0.000 No Precipitation     0.000 0.000 0.000 0.000 0.000 1.24 Clear
06/24/2022 08:00 AM 78.80 60.98 48.38 101.48 66.56 35.0 x 6.49 N 6.26 NW 10.07 N No 0.000 No Precipitation     0.000 0.000 0.000 0.000 0.000 1.24 Clear
06/24/2022 08:10 AM 78.26 60.98 48.92 101.48 66.56 36.0 x 8.28 NW 9.17 NW 11.41 NW No 0.000 No Precipitation     0.000 0.000 0.000 0.000 0.000 1.24 Clear
06/24/2022 08:20 AM 79.34 62.06 50.54 101.48 66.56 37.0 x 8.05 NW 8.50 NW 11.86 NW No 0.000 No Precipitation     0.000 0.000 0.000 0.000 0.000 1.24 Clear
06/24/2022 08:30 AM 80.60 62.78 51.08 101.48 66.56 36.0 x 7.16 NW 6.49 NW 13.65 NW No 0.000 No Precipitation     0.000 0.000 0.000 0.000 0.000 1.24 Clear
06/24/2022 08:40 AM 81.14 62.96 51.08 101.48 66.56 35.0 x 6.26 NW 4.92 NW 12.30 NW No 0.000 No Precipitation     0.000 0.000 0.000 0.000 0.000 1.24 Clear
06/24/2022 08:50 AM 83.12 64.04 51.80 101.48 66.56 34.0 x 6.04 NW 4.47 NW 11.41 NW No 0.000 No Precipitation     0.000 0.000 0.000 0.000 0.000 1.24 Clear
06/24/2022 09:00 AM 82.94 63.14 50.36 101.48 66.56 32.0 x 6.71 NW 7.61 NW 11.63 NW No 0.000 No Precipitation     0.000 0.000 0.000 0.000 0.000 1.24 Clear
06/24/2022 09:10 AM 84.38 64.22 51.44 101.48 66.56 32.0 x 6.26 NW 7.16 NW 12.30 NW No 0.000 No Precipitation     0.000 0.000 0.000 0.000 0.000 1.24 Clear
06/24/2022 09:20 AM 84.92 64.58 51.98 101.48 66.56 32.0 x 7.38 NW 9.40 NW 12.53 NW No 0.000 No Precipitation     0.000 0.000 0.000 0.000 0.000 1.24 Clear
06/24/2022 09:30 AM 85.64 64.94 52.16 101.48 66.56 32.0 x 4.70 N 3.58 NE 14.99 NW No 0.000 No Precipitation     0.000 0.000 0.000 0.000 0.000 1.24 Clear
06/24/2022 09:40 AM 86.90 65.84 53.06 101.48 66.56 32.0 x 7.38 NW 11.86 NW 12.53 NW No 0.000 No Precipitation     0.000 0.000 0.000 0.000 0.000 1.24 Clear
06/24/2022 09:50 AM 87.26 65.30 51.80 101.48 66.56 30.0 x 6.49 NW 6.26 N 12.75 NW No 0.000 No Precipitation     0.000 0.000 0.000 0.000 0.000 1.24 Clear
06/24/2022 10:00 AM 87.26 65.48 52.16 101.48 66.56 30.0 x 7.16 NW 7.16 NW 12.53 NW No 0.000 No Precipitation     0.000 0.000 0.000 0.000 0.000 1.24 Clear
06/24/2022 10:10 AM 87.62 65.48 51.98 101.48 66.56 30.0 x 4.25 N 4.03 N 13.42 NW No 0.000 No Precipitation     0.000 0.000 0.000 0.000 0.000 1.24 Clear
06/24/2022 10:20 AM 88.88 65.66 51.08 101.48 66.56 28.0 x 4.92 N 7.83 N 10.29 N No 0.000 No Precipitation     0.000 0.000 0.000 0.000 0.000 1.24 Clear
06/24/2022 10:30 AM 89.42 65.12 49.82 101.48 66.56 26.0 x 6.26 NW 9.62 NW 11.63 NW No 0.000 No Precipitation     0.000 0.000 0.000 0.000 0.000 1.24 Clear
06/24/2022 10:40 AM 90.32 65.84 50.54 101.48 66.56 26.0 x 6.04 NW 2.91 N 14.99 NW No 0.000 No Precipitation     0.000 0.000 0.000 0.000 0.000 1.24 Clear
06/24/2022 10:50 AM 90.50 64.58 47.48 101.48 66.56 23.0 x 5.59 N 4.47 NW 10.96 NW No 0.000 No Precipitation     0.000 0.000 0.000 0.000 0.000 1.24 Clear
06/24/2022 11:00 AM 91.76 64.94 46.94 101.48 66.56 22.0 x 7.61 NW 8.05 NW 13.87 NW No 0.000 No Precipitation     0.000 0.000 0.000 0.000 0.000 1.24 Clear
06/24/2022 11:10 AM 92.12 65.30 48.02 101.48 66.56 22.0 x 5.59 NW 5.82 N 12.53 NW No 0.000 No Precipitation     0.000 0.000 0.000 0.000 0.000 1.24 Clear
06/24/2022 11:20 AM 93.38 65.48 47.12 101.48 66.56 21.0 x 4.92 N 4.03 N 13.65 N No 0.000 No Precipitation     0.000 0.000 0.000 0.000 0.000 1.24 Clear
06/24/2022 11:30 AM 93.56 65.30 46.40 101.48 66.56 20.0 x 6.26 N 3.13 N 10.96 N No 0.000 No Precipitation     0.000 0.000 0.000 0.000 0.000 1.24 Clear
06/24/2022 11:40 AM 94.82 64.76 43.70 101.48 66.56 17.0 x 4.92 N 7.83 N 10.74 NW No 0.000 No Precipitation     0.000 0.000 0.000 0.000 0.000 1.24 Clear
06/24/2022 11:50 AM 94.10 64.04 42.44 101.48 66.56 17.0 x 3.58 NW 5.59 N 10.29 N No 0.000 No Precipitation     0.000 0.000 0.000 0.000 0.000 1.24 Clear
06/24/2022 12:00 PM 94.82 64.22 42.26 101.48 66.56 16.0 x 4.70 N 4.03 N 10.51 N No 0.000 No Precipitation     0.000 0.000 0.000 0.000 0.000 1.24 Clear
06/24/2022 12:10 PM 95.18 64.58 42.80 101.48 66.56 17.0 x 4.70 N 6.93 N 11.63 N No 0.000 No Precipitation     0.000 0.000 0.000 0.000 0.000 1.24 Clear
06/24/2022 12:20 PM 95.36 64.76 43.52 101.48 66.56 17.0 x 5.14 N 5.59 N 10.07 N No 0.000 No Precipitation     0.000 0.000 0.000 0.000 0.000 1.24 Clear
06/24/2022 12:30 PM 96.26 65.84 45.68 101.48 66.56 18.0 x 5.37 N 6.26 NE 11.41 NW No 0.000 No Precipitation     0.000 0.000 0.000 0.000 0.000 1.24 Clear
06/24/2022 12:40 PM 96.26 64.40 41.18 101.48 66.56 15.0 x 3.13 N 1.34 NW 9.17 N No 0.000 No Precipitation     0.000 0.000 0.000 0.000 0.000 1.24 Clear
06/24/2022 12:50 PM 98.24 65.66 43.16 101.48 66.56 15.0 x 5.37 N 3.13 NE 11.63 NW No 0.000 No Precipitation     0.000 0.000 0.000 0.000 0.000 1.24 Clear
06/24/2022 01:00 PM 97.52 64.76 40.64 101.48 66.56 14.0 x 5.37 NW 2.68 N 12.30 NW No 0.000 No Precipitation     0.000 0.000 0.000 0.000 0.000 1.24 Clear
06/24/2022 01:10 PM 98.24 65.66 42.98 101.48 66.56 15.0 x 4.47 N 4.70 N 10.51 NW No 0.000 No Precipitation     0.000 0.000 0.000 0.000 0.000 1.24 Clear
06/24/2022 01:20 PM 98.96 66.20 44.24 101.48 66.56 16.0 x 4.03 NE 2.24 NE 8.72 N No 0.000 No Precipitation     0.000 0.000 0.000 0.000 0.000 1.24 Clear
06/24/2022 01:30 PM 99.50 66.56 44.60 101.48 66.56 16.0 x 4.47 N 2.68 NW 9.40 N No 0.000 No Precipitation     0.000 0.000 0.000 0.000 0.000 1.24 Clear
06/24/2022 01:40 PM 99.32 66.20 43.52 101.48 66.56 15.0 x 2.68 NW 3.58 W 9.62 N No 0.000 No Precipitation     0.000 0.000 0.000 0.000 0.000 1.24 Clear
06/24/2022 02:00 PM 100.58 67.28 45.86 101.84 66.56 16.0 x 4.70 W 3.80 W 9.62 NW No 0.000 No Precipitation     0.000 0.000 0.000 0.000 0.000 1.24 Clear
06/24/2022 02:10 PM 100.40 66.56 43.70 101.84 66.56 15.0 x 3.58 NW 5.37 W 11.41 NW No 0.000 No Precipitation     0.000 0.000 0.000 0.000 0.000 1.24 Clear
06/24/2022 02:20 PM 100.76 66.74 43.70 102.20 66.56 15.0 x 2.68 W 1.12 N 8.05 SW No 0.000 No Precipitation     0.000 0.000 0.000 0.000 0.000 1.24 Clear
06/24/2022 02:30 PM 101.48 66.92 43.88 102.20 66.56 14.0 x 4.47 SW 1.79 W 8.95 N No 0.000 No Precipitation     0.000 0.000 0.000 0.000 0.000 1.24 Clear
06/24/2022 02:40 PM 102.20 67.10 43.34 102.20 66.56 14.0 x 1.57 W 3.13 W 7.38 SW No 0.000 No Precipitation     0.000 0.000 0.000 0.000 0.000 1.24 Clear
06/24/2022 02:50 PM 101.48 67.28 44.78 102.56 66.56 15.0 x 4.03 SW 2.46 W 7.38 W No 0.000 No Precipitation     0.000 0.000 0.000 0.000 0.000 1.24 Clear
06/24/2022 03:00 PM 102.56 67.82 45.32 102.56 66.56 15.0 x 2.91 SW 4.25 W 6.26 SW No 0.000 No Precipitation     0.000 0.000 0.000 0.000 0.000 1.24 Clear
06/24/2022 03:10 PM 102.74 67.46 44.06 103.82 66.56 14.0 x 5.82 NW 4.70 NW 8.05 NW No 0.000 No Precipitation     0.000 0.000 0.000 0.000 0.000 1.24 Clear
06/24/2022 03:20 PM 104.00 68.00 44.42 103.82 66.56 14.0 x 5.82 NW 4.25 W 12.53 NW No 0.000 No Precipitation     0.000 0.000 0.000 0.000 0.000 1.24 Clear
06/24/2022 03:30 PM 102.38 67.64 44.96 104.00 66.56 15.0 x 2.24 NW 6.49 NW 10.74 NW No 0.000 No Precipitation     0.000 0.000 0.000 0.000 0.000 1.24 Clear
06/24/2022 03:40 PM 103.10 67.28 43.16 104.18 66.56 13.0 x 2.46 W 2.01 W 8.28 NW No 0.000 No Precipitation     0.000 0.000 0.000 0.000 0.000 1.24 Clear
06/24/2022 03:50 PM 102.74 67.64 44.42 104.18 66.56 14.0 x 2.91 W 0.89 W 8.50 W No 0.000 No Precipitation     0.000 0.000 0.000 0.000 0.000 1.24 Clear
06/24/2022 04:00 PM 103.10 67.82 44.78 104.18 66.56 14.0 x 4.03 NW 5.14 N 8.50 W No 0.000 No Precipitation     0.000 0.000 0.000 0.000 0.000 1.24 Clear
06/24/2022 04:10 PM 103.28 67.64 43.88 104.18 66.56 14.0 x 4.03 N 4.47 NW 10.07 NW No 0.000 No Precipitation     0.000 0.000 0.000 0.000 0.000 1.24 Clear
06/24/2022 04:20 PM 104.36 68.36 45.14 104.90 66.56 14.0 x 4.70 N 4.47 NW 10.29 N No 0.000 No Precipitation     0.000 0.000 0.000 0.000 0.000 1.24 Clear
06/24/2022 04:30 PM 104.00 68.72 46.40 105.26 66.56 15.0 x 4.25 NE 3.13 NE 9.84 N No 0.000 No Precipitation     0.000 0.000 0.000 0.000 0.000 1.24 Clear
06/24/2022 04:40 PM 102.38 68.18 46.58 105.26 66.56 15.0 x 4.47 N 2.24 N 10.07 NE No 0.000 No Precipitation     0.000 0.000 0.000 0.000 0.000 1.24 Clear
06/24/2022 04:50 PM 104.36 68.90 46.76 105.26 66.56 15.0 x 4.70 NW 3.58 W 8.72 NW No 0.000 No Precipitation     0.000 0.000 0.000 0.000 0.000 1.24 Clear
06/24/2022 05:00 PM 103.82 67.82 44.42 105.26 66.56 14.0 x 4.70 NW 6.71 NW 8.95 NW No 0.000 No Precipitation     0.000 0.000 0.000 0.000 0.000 1.24 Clear
06/24/2022 05:10 PM 104.36 69.26 47.66 105.26 66.56 15.0 x 4.70 NW 6.49 W 10.29 NW No 0.000 No Precipitation     0.000 0.000 0.000 0.000 0.000 1.24 Clear
06/24/2022 05:20 PM 103.28 67.82 44.78 105.26 66.56 14.0 x 4.03 NW 1.79 NW 12.53 NW No 0.000 No Precipitation     0.000 0.000 0.000 0.000 0.000 1.24 Clear
06/24/2022 05:30 PM 103.10 69.44 49.82 105.26 66.56 17.0 x 8.05 NW 10.74 N 11.41 NW No 0.000 No Precipitation     0.000 0.000 0.000 0.000 0.000 1.24 Clear
06/24/2022 05:40 PM 102.02 69.80 51.26 105.26 66.56 19.0 x 9.40 N 7.83 N 13.65 N No 0.000 No Precipitation     0.000 0.000 0.000 0.000 0.000 1.24 Clear
06/24/2022 05:50 PM 101.66 70.52 53.42 105.26 66.56 20.0 x 8.72 N 8.72 N 12.75 N No 0.000 No Precipitation     0.000 0.000 0.000 0.000 0.000 1.24 Clear
06/24/2022 06:00 PM 100.40 70.52 54.14 105.26 66.56 22.0 x 8.95 N 7.83 N 16.55 N No 0.000 No Precipitation     0.000 0.000 0.000 0.000 0.000 1.24 Clear
06/24/2022 06:10 PM 100.22 70.34 53.78 105.26 66.56 21.0 x 9.40 N 6.26 N 12.53 N No 0.000 No Precipitation     0.000 0.000 0.000 0.000 0.000 1.24 Clear
06/24/2022 06:20 PM 99.68 71.06 55.76 105.26 66.56 23.0 x 7.16 N 7.16 NW 12.53 N No 0.000 No Precipitation     0.000 0.000 0.000 0.000 0.000 1.24 Clear
06/24/2022 06:30 PM 99.32 70.52 55.04 105.26 66.56 23.0 x 6.93 N 7.16 N 12.97 N No 0.000 No Precipitation     0.000 0.000 0.000 0.000 0.000 1.24 Clear
06/24/2022 06:40 PM 98.60 69.98 54.32 105.26 66.56 23.0 x 7.16 N 5.82 N 11.18 N No 0.000 No Precipitation     0.000 0.000 0.000 0.000 0.000 1.24 Clear
06/24/2022 06:50 PM 98.42 69.98 54.14 105.26 66.56 23.0 x 6.49 N 6.93 N 11.86 N No 0.000 No Precipitation     0.000 0.000 0.000 0.000 0.000 1.24 Clear
06/24/2022 07:00 PM 98.24 69.80 53.96 105.26 66.56 23.0 x 5.37 N 6.71 N 10.51 N No 0.000 No Precipitation     0.000 0.000 0.000 0.000 0.000 1.24 Clear
06/24/2022 07:10 PM 97.34 69.62 54.32 105.26 66.56 24.0 x 5.37 N 4.92 NE 8.50 N No 0.000 No Precipitation     0.000 0.000 0.000 0.000 0.000 1.24 Clear
06/24/2022 07:20 PM 96.98 69.80 55.04 105.26 66.56 25.0 x 5.37 N 6.49 N 9.62 N No 0.000 No Precipitation     0.000 0.000 0.000 0.000 0.000 1.24 Clear
06/24/2022 07:30 PM 96.26 70.16 56.12 105.26 66.56 26.0 x 4.70 N 3.36 N 8.28 NW No 0.000 No Precipitation     0.000 0.000 0.000 0.000 0.000 1.24 Clear
06/24/2022 07:40 PM 95.72 70.16 56.66 105.26 66.56 27.0 x 5.14 N 3.58 N 8.05 NW No 0.000 No Precipitation     0.000 0.000 0.000 0.000 0.000 1.24 Clear
06/24/2022 07:50 PM 94.46 70.16 57.38 105.26 66.56 29.0 x 4.25 N 5.82 N 7.61 N No 0.000 No Precipitation     0.000 0.000 0.000 0.000 0.000 1.24 Clear
06/24/2022 08:00 PM 93.92 69.26 55.58 105.26 66.56 28.0 x 7.16 N 5.59 NW 10.29 NW No 0.000 No Precipitation     0.000 0.000 0.000 0.000 0.000 1.24 Clear
06/24/2022 08:10 PM 92.66 69.08 56.30 105.26 66.56 30.0 x 5.14 N 3.58 N 9.17 NW No 0.000 No Precipitation     0.000 0.000 0.000 0.000 0.000 1.24 Clear
06/24/2022 08:20 PM 91.76 67.82 54.32 105.26 66.56 28.0 x 8.95 NW 9.62 NW 13.20 NW No 0.000 No Precipitation     0.000 0.000 0.000 0.000 0.000 1.24 Clear
06/24/2022 08:30 PM 90.50 67.28 53.60 105.26 66.56 29.0 x 9.40 NW 7.38 NW 11.86 NW No 0.000 No Precipitation     0.000 0.000 0.000 0.000 0.000 1.24 Clear
06/24/2022 08:40 PM 90.68 66.92 52.88 105.26 66.56 28.0 x 8.28 NW 9.84 NW 13.20 NW No 0.000 No Precipitation     0.000 0.000 0.000 0.000 0.000 1.24 Clear
06/24/2022 08:50 PM 90.68 66.74 52.52 105.26 66.56 28.0 x 4.47 NW 1.79 N 10.96 NW No 0.000 No Precipitation     0.000 0.000 0.000 0.000 0.000 1.24 Clear
06/24/2022 09:00 PM 89.60 66.38 52.34 105.26 66.56 28.0 x 6.93 NW 7.83 NW 10.96 NW No 0.000 No Precipitation     0.000 0.000 0.000 0.000 0.000 1.24 Clear
06/24/2022 09:10 PM 87.80 66.02 52.88 105.26 66.56 31.0 x 6.93 NW 7.16 NW 10.74 NW No 0.000 No Precipitation     0.000 0.000 0.000 0.000 0.000 1.24 Clear
06/24/2022 09:20 PM 86.54 65.30 52.16 105.26 66.56 31.0 x 6.26 NW 4.70 NW 9.17 NW No 0.000 No Precipitation     0.000 0.000 0.000 0.000 0.000 1.24 Clear
06/24/2022 09:30 PM 86.90 64.76 50.90 105.26 66.56 29.0 x 7.38 NW 7.61 NW 11.18 NW No 0.000 No Precipitation     0.000 0.000 0.000 0.000 0.000 1.24 Clear
06/24/2022 09:40 PM 86.54 64.40 50.36 105.26 66.56 29.0 x 6.49 NW 5.82 NW 10.51 NW No 0.000 No Precipitation     0.000 0.000 0.000 0.000 0.000 1.24 Clear
06/24/2022 09:50 PM 86.00 64.22 50.18 105.26 66.56 29.0 x 6.93 NW 7.38 NW 9.17 NW No 0.000 No Precipitation     0.000 0.000 0.000 0.000 0.000 1.24 Clear
06/24/2022 10:00 PM 86.00 64.40 50.36 105.26 66.56 29.0 x 8.05 NW 6.71 NW 10.74 NW No 0.000 No Precipitation     0.000 0.000 0.000 0.000 0.000 1.24 Clear
06/24/2022 10:10 PM 85.28 63.86 50.00 105.26 66.56 30.0 x 7.16 NW 6.49 NW 12.08 NW No 0.000 No Precipitation     0.000 0.000 0.000 0.000 0.000 1.24 Clear
06/24/2022 10:20 PM 84.56 63.68 50.00 105.26 66.56 30.0 x 6.71 NW 7.38 NW 9.62 NW No 0.000 No Precipitation     0.000 0.000 0.000 0.000 0.000 1.24 Clear
06/24/2022 10:30 PM 85.46 63.50 49.10 105.26 66.56 29.0 x 10.51 NW 12.08 NW 14.54 NW No 0.000 No Precipitation     0.000 0.000 0.000 0.000 0.000 1.24 Clear
06/24/2022 10:40 PM 85.64 63.86 49.82 105.26 66.56 29.0 x 7.83 NW 6.04 N 12.53 NW No 0.000 No Precipitation     0.000 0.000 0.000 0.000 0.000 1.24 Clear
06/24/2022 10:50 PM 83.84 63.32 49.82 105.26 66.56 31.0 x 7.83 NW 7.16 NW 10.07 NW No 0.000 No Precipitation     0.000 0.000 0.000 0.000 0.000 1.24 Clear
06/24/2022 11:00 PM 82.22 62.42 49.10 105.26 66.56 32.0 x 4.70 NW 4.92 NW 9.84 NW No 0.000 No Precipitation     0.000 0.000 0.000 0.000 0.000 1.24 Clear
06/24/2022 11:10 PM 82.58 62.42 48.92 105.26 66.56 31.0 x 7.61 NW 7.38 NW 10.51 NW No 0.000 No Precipitation     0.000 0.000 0.000 0.000 0.000 1.24 Clear
06/24/2022 11:20 PM 82.94 63.14 50.18 105.26 66.56 32.0 x 4.47 N 4.47 N 9.40 NW No 0.000 No Precipitation     0.000 0.000 0.000 0.000 0.000 1.24 Clear
06/24/2022 11:40 PM 80.24 63.14 52.34 105.26 66.56 38.0 x 5.14 N 7.16 NW 9.84 NW No 0.000 No Precipitation     0.000 0.000 0.000 0.000 0.000 1.24 Clear
06/24/2022 11:50 PM 78.44 62.96 53.42 105.26 66.56 42.0 x 4.70 N 4.25 N 8.72 N No 0.000 No Precipitation     0.000 0.000 0.000 0.000 0.000 1.24 Clear